LZKZ Airport Information

Runway Information
Runway 01 Length 10171 ft width 148 ft
Elevation 739 ft Threshold 0 ft Heading 13
Runway 19 Length 10171 ft Width 148 ft
Elevation 753 ft Threshold 0 ft Heading 193
Airport Frequencies
Type APP Name APP Frequency 119.85 MHZ
Type TWR Name TWR Frequency 120.4 MHZ
Airport Navaids
Type NDB Name Kosice Frequency 425 KHZ
Type VOR-DME Name Kosice Frequency 108200 KHZ
Airport Weather Information & NOTAM
ADDS - METARS form results

(0111 UTC 22 July 2019)
Data provider http://aviationweather.gov/metar/data/
 
METAR text: LZKZ 220100Z VRB02KT CAVOK 16/15 Q1021
Conditions at: LZKZ (KOSICE BARCA , SK) observed 0100 UTC 22 July 2019
Temperature: 16.0°C (61°F)
Dewpoint: 15.0°C (59°F) [RH = 94%]
Pressure (altimeter): 30.15 inches Hg (1021.0 mb)
Winds: variable direction winds at 2 MPH (2 knots; 1.0 m/s)
Visibility: 6 or more miles (10+ km)
Ceiling: ceiling and visibility are OK
Clouds: unknown
Weather: no significant weather observed at this time

METAR text: LZKZ 220030Z 04005KT 010V070 CAVOK 16/15 Q1021
Conditions at: LZKZ (KOSICE BARCA , SK) observed 0030 UTC 22 July 2019
Temperature: 16.0°C (61°F)
Dewpoint: 15.0°C (59°F) [RH = 94%]
Pressure (altimeter): 30.15 inches Hg (1021.0 mb)
Winds: from the NE (40 degrees) at 6 MPH (5 knots; 2.6 m/s)
Visibility: 6 or more miles (10+ km)
Ceiling: ceiling and visibility are OK
Clouds: unknown
Weather: no significant weather observed at this time

Forecast for: LZKZ (KOSICE BARCA , SK)
Text: TAF LZKZ 212300Z 2200/2300 01006KT CAVOK
Forecast period: 0000 UTC 22 July 2019 to 0000 UTC 23 July 2019
Forecast type: FROM: standard forecast or significant change
Winds: from the N (10 degrees) at 7 MPH (6 knots; 3.1 m/s)
Visibility: 6 or more miles 10+ km)
Ceiling: unknown
Clouds: missing
Weather: NSW  (no significant weather)
Text: TEMPO 2200/2206 VRB02KT 2300 BCFG SCT001
Forecast period: 0000 to 0600 UTC 22 July 2019
Forecast type: TEMPORARY: The following changes expected for less than half the time period
Winds: variable direction winds at 2 MPH (2 knots; 1.0 m/s)
Visibility: 1.43 miles (2.30 km)
Ceiling: at least 12,000 feet AGL
Clouds: scattered clouds at 100 feet AGL
Weather: BCFG  (patches of fog)
Text: TEMPO 2206/2215 02012KT 9999 SCT040 SCT090
Forecast period: 0600 to 1500 UTC 22 July 2019
Forecast type: TEMPORARY: The following changes expected for less than half the time period
Winds: from the NNE (20 degrees) at 14 MPH (12 knots; 6.2 m/s)
Visibility: 6 or more miles 10+ km)
Ceiling: at least 12,000 feet AGL
Clouds: scattered clouds at 4000 feet AGL
scattered clouds at 9000 feet AGL
Weather: no significant weather forecast for this period